Time;durP1;ratioP1;P1;durP2;ratioP2;P2;SDS_P1;SDS_P2;PMS_P1;PMS_P2;Temp;Humidity;BMP_temperature;BMP_pressure;BME280_temperature;BME280_humidity;BME280_pressure;Samples;Min_cycle;Max_cycle;Signal;HPM_P1;HPM_P2
2020/12/01 00:00:15;;;;;;;;;25.75;21.00;;;;;8.61;65.69;102023.50;4367193;32;12410;-75
2020/12/01 00:03:10;;;;;;;;;17.75;17.75;;;;;8.35;66.18;102024.72;4360119;32;12345;-73
2020/12/01 00:06:07;;;;;;;;;24.50;20.50;;;;;8.33;66.20;102021.41;4372290;32;13330;-74
2020/12/01 00:09:03;;;;;;;;;20.00;17.25;;;;;8.43;65.94;102032.41;4369586;32;12370;-74
2020/12/01 00:11:58;;;;;;;;;19.50;19.00;;;;;8.06;66.76;102033.66;4365850;32;13195;-75
2020/12/01 00:14:48;;;;;;;;;18.25;18.00;;;;;8.07;67.05;102042.75;4362766;32;12425;-75
2020/12/01 00:17:44;;;;;;;;;18.75;18.00;;;;;8.33;66.27;102038.78;4358281;32;12365;-75
2020/12/01 00:20:40;;;;;;;;;17.50;17.50;;;;;8.14;66.64;102042.47;4358996;32;12368;-75
2020/12/01 00:23:07;;;;;;;;;16.25;16.25;;;;;7.88;67.58;102045.28;4366053;32;13004;-75
2020/12/01 00:26:03;;;;;;;;;14.25;14.25;;;;;8.18;66.90;102038.03;4349893;32;12359;-75
2020/12/01 00:28:59;;;;;;;;;14.00;14.00;;;;;8.10;67.28;102042.19;4354340;32;12383;-75
2020/12/01 00:31:54;;;;;;;;;15.25;14.25;;;;;8.00;67.69;102040.28;4358624;32;12325;-73
2020/12/01 00:34:22;;;;;;;;;11.00;10.50;;;;;7.70;68.84;102043.97;4373151;32;12411;-73
2020/12/01 00:37:17;;;;;;;;;14.50;13.50;;;;;7.47;69.78;102033.53;4372207;32;12351;-74
2020/12/01 00:40:14;;;;;;;;;10.25;10.25;;;;;7.70;69.16;102032.12;4365774;32;12406;-75
2020/12/01 00:43:10;;;;;;;;;12.25;12.25;;;;;7.75;69.41;102037.63;4370323;32;12425;-74
2020/12/01 00:46:05;;;;;;;;;10.75;10.75;;;;;7.59;70.22;102038.72;4358391;32;12347;-74
2020/12/01 00:48:33;;;;;;;;;11.50;11.50;;;;;7.65;70.00;102043.13;4361761;32;12280;-74
2020/12/01 00:51:28;;;;;;;;;11.25;10.75;;;;;7.55;70.86;102038.47;4351165;32;12403;-74
2020/12/01 00:54:24;;;;;;;;;13.75;13.75;;;;;7.58;71.28;102046.16;4358714;32;12338;-75
2020/12/01 00:57:19;;;;;;;;;5.50;5.00;;;;;7.29;72.41;102051.44;4363607;32;12354;-74
2020/12/01 01:00:04;;;;;;;;;9.75;9.75;;;;;7.15;72.69;102053.09;4365525;32;12300;-75
2020/12/01 01:03:00;;;;;;;;;10.00;10.00;;;;;7.05;73.01;102039.31;4358772;32;12344;-75
2020/12/01 01:05:56;;;;;;;;;13.00;10.00;;;;;6.98;73.52;102050.63;4359443;32;12973;-75
2020/12/01 01:08:51;;;;;;;;;6.00;4.50;;;;;7.17;72.82;102050.87;4360752;32;12300;-74
2020/12/01 01:11:26;;;;;;;;;10.75;9.25;;;;;6.86;73.43;102050.03;4360702;32;12392;-75
2020/12/01 01:14:22;;;;;;;;;7.00;6.50;;;;;6.88;73.64;102051.41;4370025;32;12432;-74
2020/12/01 01:17:18;;;;;;;;;14.00;14.00;;;;;7.05;73.14;102055.81;4371849;32;12303;-75
2020/12/01 01:20:14;;;;;;;;;6.50;6.50;;;;;7.34;72.56;102064.37;4368149;32;12311;-75
2020/12/01 01:23:12;;;;;;;;;9.25;9.25;;;;;7.29;72.38;102062.47;4357537;32;12472;-75
2020/12/01 01:25:40;;;;;;;;;13.75;13.75;;;;;7.21;72.58;102057.50;4365585;32;12269;-76
2020/12/01 01:28:35;;;;;;;;;6.50;6.50;;;;;7.16;72.62;102061.06;4349273;32;12326;-75
2020/12/01 01:31:31;;;;;;;;;15.75;14.50;;;;;6.77;73.54;102051.69;4369874;32;12302;-75
2020/12/01 01:34:27;;;;;;;;;15.50;13.00;;;;;7.05;72.55;102053.06;4363499;32;12429;-75
2020/12/01 01:37:22;;;;;;;;;12.50;12.50;;;;;6.92;72.91;102065.47;4360502;32;12330;-76
2020/12/01 01:40:26;;;;;;;;;17.75;15.50;;;;;6.96;72.85;102066.53;4358285;32;12369;-75
2020/12/01 01:42:54;;;;;;;;;18.00;15.75;;;;;6.99;72.50;102065.19;4346197;32;12381;-75
2020/12/01 01:45:52;;;;;;;;;7.75;7.75;;;;;7.00;72.18;102056.66;4357210;32;12347;-76
2020/12/01 01:48:26;;;;;;;;;13.50;13.50;;;;;7.02;71.89;102059.97;4358063;32;12378;-76
2020/12/01 01:51:22;;;;;;;;;13.75;13.75;;;;;7.04;71.63;102065.19;4347467;32;12477;-76
2020/12/01 01:53:58;;;;;;;;;34.75;34.75;;;;;7.13;71.11;102069.88;4360088;32;13008;-75
2020/12/01 01:56:59;;;;;;;;;27.50;27.00;;;;;6.94;71.38;102075.06;4357337;32;12444;-76
2020/12/01 01:59:57;;;;;;;;;34.50;29.00;;;;;7.07;70.78;102067.41;4369315;32;12423;-75
2020/12/01 02:02:52;;;;;;;;;21.75;21.75;;;;;7.00;71.15;102075.91;4368214;32;12407;-75
2020/12/01 02:05:33;;;;;;;;;17.75;16.00;;;;;6.84;71.62;102077.81;4369357;32;12987;-75
2020/12/01 02:08:32;;;;;;;;;10.75;10.75;;;;;6.54;72.39;102075.81;4356970;32;12368;-75
2020/12/01 02:11:31;;;;;;;;;10.00;10.00;;;;;6.45;72.90;102060.13;4367341;32;12369;-76
2020/12/01 02:14:31;;;;;;;;;12.75;12.75;;;;;6.43;72.47;102063.13;4361640;32;12442;-76
2020/12/01 02:17:31;;;;;;;;;13.75;13.75;;;;;6.37;72.69;102073.28;4357224;32;12379;-75
2020/12/01 02:20:27;;;;;;;;;11.25;11.25;;;;;6.20;72.74;102069.91;4347275;32;12471;-75
2020/12/01 02:23:23;;;;;;;;;10.50;10.50;;;;;6.45;72.33;102071.13;4363291;32;12349;-76
2020/12/01 02:26:19;;;;;;;;;8.25;8.25;;;;;6.73;71.18;102067.87;4356915;32;12396;-75
2020/12/01 02:29:18;;;;;;;;;2.00;2.00;;;;;6.29;71.49;102071.06;4357125;32;13073;-76
2020/12/01 02:32:15;;;;;;;;;5.25;5.25;;;;;6.25;71.45;102078.16;4365737;32;12302;-76
2020/12/01 02:35:11;;;;;;;;;6.50;6.50;;;;;6.37;70.90;102083.44;4368479;32;12277;-76
2020/12/01 02:38:07;;;;;;;;;11.00;9.75;;;;;6.29;71.03;102082.06;4368418;32;12290;-76
2020/12/01 02:40:34;;;;;;;;;9.25;9.25;;;;;6.27;70.86;102067.72;4363836;32;12442;-76
2020/12/01 02:43:30;;;;;;;;;5.25;5.25;;;;;6.48;70.57;102078.81;4360892;32;12343;-76
2020/12/01 02:46:33;;;;;;;;;4.75;4.75;;;;;6.32;70.68;102081.50;4346760;32;12427;-76
2020/12/01 02:49:29;;;;;;;;;4.50;4.50;;;;;6.57;70.10;102085.44;4357102;32;12377;-76
2020/12/01 02:52:24;;;;;;;;;6.00;5.00;;;;;6.28;70.30;102077.63;4366204;32;12373;-76
2020/12/01 02:55:20;;;;;;;;;5.00;5.00;;;;;6.53;69.20;102082.41;4365489;32;12357;-76
2020/12/01 02:58:01;;;;;;;;;7.50;7.50;;;;;6.62;68.25;102082.72;4359112;32;12405;-76
2020/12/01 03:00:57;;;;;;;;;22.25;22.00;;;;;6.67;68.15;102089.06;4362679;32;12336;-76
2020/12/01 03:03:38;;;;;;;;;38.75;34.75;;;;;6.32;69.83;102088.91;4356142;33;12454;-76
2020/12/01 03:06:35;;;;;;;;;48.25;41.75;;;;;6.28;71.10;102087.78;4366100;32;12409;-76
2020/12/01 03:09:30;;;;;;;;;48.75;40.25;;;;;6.55;70.52;102093.94;4358059;32;12352;-76
2020/12/01 03:12:28;;;;;;;;;46.00;42.25;;;;;6.50;71.00;102098.59;4350386;32;12547;-76
2020/12/01 03:15:23;;;;;;;;;46.00;43.25;;;;;6.38;70.94;102105.16;4359308;32;12427;-76
2020/12/01 03:18:19;;;;;;;;;48.00;42.25;;;;;6.10;71.54;102103.63;4367665;32;13094;-76
2020/12/01 03:20:47;;;;;;;;;61.50;48.75;;;;;6.18;71.94;102102.31;4365162;32;13063;-75
2020/12/01 03:23:44;;;;;;;;;42.00;39.75;;;;;5.98;72.67;102107.69;4365286;32;12380;-75
2020/12/01 03:26:40;;;;;;;;;29.50;29.00;;;;;5.72;73.46;102121.22;4358936;32;12366;-76
2020/12/01 03:29:36;;;;;;;;;25.00;24.00;;;;;6.15;72.08;102126.75;4353623;32;12319;-75
2020/12/01 03:32:33;;;;;;;;;27.00;27.00;;;;;5.94;72.80;102121.13;4362264;32;12309;-76
2020/12/01 03:35:29;;;;;;;;;20.50;20.50;;;;;5.70;73.51;102119.84;4360779;32;12358;-75
2020/12/01 03:38:11;;;;;;;;;24.25;24.25;;;;;5.69;73.89;102121.75;4370868;32;12481;-75
2020/12/01 03:41:06;;;;;;;;;22.50;22.50;;;;;5.69;73.79;102121.75;4351316;32;12326;-75
2020/12/01 03:44:02;;;;;;;;;34.25;32.75;;;;;5.45;74.29;102106.75;4367558;32;12304;-75
2020/12/01 03:46:37;;;;;;;;;24.75;24.75;;;;;5.63;74.10;102117.31;4362939;32;12480;-75
2020/12/01 03:49:33;;;;;;;;;30.75;29.75;;;;;5.47;74.43;102123.78;4367992;32;12368;-75
2020/12/01 03:52:28;;;;;;;;;40.50;39.50;;;;;5.63;74.21;102128.28;4363785;32;12417;-75
2020/12/01 03:55:19;;;;;;;;;43.00;38.50;;;;;5.71;74.04;102126.97;4359650;32;13083;-76
2020/12/01 03:58:16;;;;;;;;;37.50;35.75;;;;;5.71;73.94;102121.50;4364124;32;12392;-75
2020/12/01 04:00:58;;;;;;;;;31.50;27.00;;;;;5.74;74.09;102118.19;4352048;32;12429;-75
2020/12/01 04:03:27;;;;;;;;;6.25;6.25;;;;;5.56;74.09;102123.03;4365744;32;12404;-75
2020/12/01 04:06:23;;;;;;;;;24.25;20.50;;;;;5.84;73.07;102129.28;4365709;32;12307;-75
2020/12/01 04:09:19;;;;;;;;;19.50;19.50;;;;;5.99;72.71;102132.16;4366259;32;12489;-75
2020/12/01 04:12:15;;;;;;;;;19.75;19.75;;;;;5.75;73.05;102122.59;4358022;32;12369;-74
2020/12/01 04:14:41;;;;;;;;;22.50;22.50;;;;;5.44;74.21;102121.53;4365469;32;12371;-75
2020/12/01 04:17:32;;;;;;;;;32.50;28.50;;;;;5.78;73.48;102122.91;4365436;32;13616;-74
2020/12/01 04:20:29;;;;;;;;;27.00;27.00;;;;;5.52;73.48;102126.53;4352442;32;12439;-74
2020/12/01 04:23:26;;;;;;;;;15.00;15.00;;;;;5.88;72.04;102141.38;4357188;32;12378;-75
2020/12/01 04:26:17;;;;;;;;;15.75;15.75;;;;;5.95;71.38;102133.75;4356095;32;13066;-76
2020/12/01 04:29:12;;;;;;;;;10.25;9.25;;;;;6.00;71.48;102136.56;4348321;33;12398;-75
2020/12/01 04:32:09;;;;;;;;;9.75;9.75;;;;;6.05;71.24;102135.75;4364015;32;12299;-75
2020/12/01 04:34:36;;;;;;;;;8.25;8.25;;;;;6.11;70.41;102131.94;4365729;32;12321;-75
2020/12/01 04:37:33;;;;;;;;;9.25;9.25;;;;;6.01;70.45;102134.63;4360092;32;12351;-75
2020/12/01 04:40:33;;;;;;;;;10.00;10.00;;;;;6.16;69.75;102140.22;4365132;32;12345;-75
2020/12/01 04:43:25;;;;;;;;;8.00;5.75;;;;;6.18;69.91;102135.28;4353066;32;12391;-75
2020/12/01 04:45:58;;;;;;;;;9.25;9.25;;;;;5.76;70.91;102136.09;4346295;32;12289;-75
2020/12/01 04:48:59;;;;;;;;;10.25;10.25;;;;;5.95;70.66;102135.69;4361681;32;12256;-76
2020/12/01 04:52:01;;;;;;;;;13.25;12.25;;;;;6.00;71.03;102127.50;4366385;32;12328;-76
2020/12/01 04:55:04;;;;;;;;;8.50;8.50;;;;;5.75;71.95;102128.94;4359134;32;12303;-76
2020/12/01 04:57:51;;;;;;;;;16.75;16.00;;;;;5.82;71.86;102120.44;4358679;32;12430;-76
2020/12/01 05:00:24;;;;;;;;;14.25;12.25;;;;;5.69;72.15;102127.25;4365789;32;12371;-76
2020/12/01 05:03:33;;;;;;;;;12.50;12.50;;;;;5.90;71.67;102125.44;4367613;32;12393;-76
2020/12/01 05:07:09;;;;;;;;;28.75;28.75;;;;;5.50;72.29;102129.56;4360058;32;13050;-75
2020/12/01 05:09:43;;;;;;;;;36.00;33.50;;;;;5.36;73.06;102135.72;4362542;32;13046;-75
2020/12/01 05:12:37;;;;;;;;;49.00;44.25;;;;;5.35;73.46;102134.91;4367768;32;12395;-75
2020/12/01 05:15:39;;;;;;;;;32.25;31.75;;;;;5.57;73.43;102130.16;4358554;32;12425;-75
2020/12/01 05:18:35;;;;;;;;;28.00;28.00;;;;;5.49;73.44;102125.16;4359931;32;12351;-74
2020/12/01 05:21:31;;;;;;;;;22.00;22.00;;;;;5.58;73.35;102131.00;4368205;32;12397;-75
2020/12/01 05:23:58;;;;;;;;;22.75;22.75;;;;;5.41;73.89;102131.13;4348484;32;12368;-74
2020/12/01 05:26:41;;;;;;;;;27.75;22.75;;;;;5.13;74.82;102134.16;4360667;32;12331;-74
2020/12/01 05:29:26;;;;;;;;;32.75;31.00;;;;;5.22;74.98;102133.44;4356523;32;12389;-74
2020/12/01 05:32:34;;;;;;;;;32.50;31.00;;;;;5.34;74.65;102137.91;4360872;32;12318;-74
2020/12/01 05:35:07;;;;;;;;;30.50;30.25;;;;;5.36;74.66;102136.56;4359756;32;12341;-75
2020/12/01 05:37:34;;;;;;;;;49.00;44.50;;;;;5.54;74.05;102138.09;4360958;32;12419;-75
2020/12/01 05:40:33;;;;;;;;;44.75;40.75;;;;;5.45;74.49;102134.19;4356927;32;12423;-77
2020/12/01 05:43:27;;;;;;;;;64.00;49.00;;;;;5.49;74.42;102132.56;4346281;33;12512;-76
2020/12/01 05:46:30;;;;;;;;;54.75;46.00;;;;;5.65;73.94;102137.09;4345091;33;9577;-76
2020/12/01 05:49:03;;;;;;;;;27.25;26.25;;;;;5.48;74.85;102139.16;4358363;32;12372;-77
2020/12/01 05:52:05;;;;;;;;;47.50;40.00;;;;;5.72;73.89;102134.94;4357338;33;13083;-76
2020/12/01 05:54:39;;;;;;;;;46.75;40.00;;;;;5.50;74.72;102135.03;4358043;32;12363;-77
2020/12/01 05:57:35;;;;;;;;;57.67;48.00;;;;;5.64;74.40;102131.84;4357239;32;12478;-76
2020/12/01 06:00:12;;;;;;;;;50.50;43.00;;;;;5.76;74.04;102141.56;4346496;32;12353;-77
2020/12/01 06:02:56;;;;;;;;;40.75;39.25;;;;;5.75;73.91;102142.66;4359142;32;12431;-77
2020/12/01 06:05:49;;;;;;;;;34.50;31.75;;;;;5.82;73.40;102145.16;4358927;32;12422;-76
2020/12/01 06:08:50;;;;;;;;;35.50;35.00;;;;;5.69;73.75;102138.22;4357278;32;12383;-76
2020/12/01 06:11:53;;;;;;;;;49.00;40.00;;;;;5.47;74.27;102142.97;4357916;33;13013;-76
2020/12/01 06:14:42;;;;;;;;;51.00;43.25;;;;;5.57;74.31;102140.31;4358137;33;12403;-76
2020/12/01 06:17:50;;;;;;;;;57.50;49.00;;;;;5.64;74.28;102140.09;4358320;33;12426;-76
2020/12/01 06:21:01;;;;;;;;;57.25;47.25;;;;;5.66;74.55;102133.25;4357055;32;12450;-76
2020/12/01 06:24:02;;;;;;;;;64.67;53.33;;;;;5.74;74.37;102142.91;4360987;32;12401;-74
2020/12/01 06:27:04;;;;;;;;;67.00;56.33;;;;;5.36;75.37;102144.78;4373198;32;8902;-75
2020/12/01 06:30:30;;;;;;;;;53.25;47.00;;;;;5.41;75.60;102146.75;4364644;32;8949;-75
2020/12/01 06:33:54;;;;;;;;;28.75;28.75;;;;;5.47;75.44;102151.22;4362588;32;12429;-74
2020/12/01 06:37:12;;;;;;;;;38.00;35.50;;;;;5.09;76.28;102150.31;4367275;32;12377;-74
2020/12/01 06:40:28;;;;;;;;;29.75;26.75;;;;;5.23;75.87;102146.06;4357246;32;12382;-75
2020/12/01 06:43:47;;;;;;;;;31.25;31.25;;;;;5.11;76.27;102142.63;4359277;32;12350;-75
2020/12/01 06:46:35;;;;;;;;;31.00;31.00;;;;;5.26;75.82;102142.78;4361703;32;12357;-74
2020/12/01 06:49:08;;;;;;;;;44.25;41.50;;;;;5.28;75.41;102135.13;4359652;32;12455;-74
2020/12/01 06:52:11;;;;;;;;;37.00;37.00;;;;;5.48;75.43;102139.16;4364982;32;13118;-74
2020/12/01 06:54:53;;;;;;;;;35.50;35.00;;;;;5.38;75.26;102145.37;4375474;32;12351;-74
2020/12/01 06:57:30;;;;;;;;;32.50;31.75;;;;;5.24;74.76;102144.97;4376183;32;12400;-75
2020/12/01 06:59:58;;;;;;;;;22.00;20.50;;;;;5.35;74.44;102145.06;4375514;32;12395;-75
2020/12/01 07:02:54;;;;;;;;;27.75;25.25;;;;;5.08;74.90;102136.84;4364457;32;13080;-76
2020/12/01 07:05:49;;;;;;;;;24.00;22.50;;;;;5.27;74.59;102147.19;4364349;32;12430;-76
2020/12/01 07:08:46;;;;;;;;;23.25;22.75;;;;;5.16;74.57;102141.87;4360778;32;13011;-74
2020/12/01 07:11:28;;;;;;;;;24.00;17.25;;;;;5.44;74.06;102152.53;4361454;32;12327;-75
2020/12/01 07:14:20;;;;;;;;;21.00;21.00;;;;;5.06;74.44;102152.72;4367982;32;12408;-76
2020/12/01 07:17:35;;;;;;;;;19.00;19.00;;;;;5.29;74.14;102149.66;4365431;32;12414;-75
2020/12/01 07:21:01;;;;;;;;;19.00;16.50;;;;;5.32;74.32;102156.56;4359715;32;12413;-75
2020/12/01 07:24:02;;;;;;;;;18.50;18.50;;;;;5.13;74.18;102147.84;4360153;32;12325;-76
2020/12/01 07:27:31;;;;;;;;;34.00;32.75;;;;;5.20;74.03;102149.31;4359259;32;12346;-77
2020/12/01 07:30:31;;;;;;;;;76.33;61.00;;;;;5.25;73.84;102146.62;4367939;32;12347;-81
2020/12/01 07:33:34;;;;;;;;;71.00;59.25;;;;;9.18;90.35;102150.88;4341447;33;9636;-78
2020/12/01 07:36:43;;;;;;;;;70.50;54.00;;;;;10.93;85.26;102141.41;4349191;33;12438;-81
2020/12/01 07:39:53;;;;;;;;;39.25;38.00;;;;;11.14;78.78;102150.25;4378102;32;12435;-78
2020/12/01 07:42:32;;;;;;;;;33.25;33.25;;;;;11.61;78.87;102145.63;4376709;32;12418;-80
2020/12/01 07:45:23;;;;;;;;;22.00;22.00;;;;;12.85;79.73;102156.88;4364596;32;12449;-79
2020/12/01 07:48:22;;;;;;;;;28.00;27.50;;;;;12.42;72.97;102154.44;4358877;33;12357;-78
2020/12/01 07:51:02;;;;;;;;;32.00;27.50;;;;;12.94;67.58;102155.00;4360899;32;11851;-81
2020/12/01 07:53:59;;;;;;;;;31.00;30.50;;;;;12.62;73.18;102153.22;4366556;32;11631;-79
2020/12/01 07:56:55;;;;;;;;;25.00;25.00;;;;;11.38;65.90;102147.38;4363727;32;12091;-78
2020/12/01 07:59:52;;;;;;;;;21.75;21.00;;;;;11.56;67.86;102142.94;4363705;32;12345;-75
2020/12/01 08:02:49;;;;;;;;;10.00;9.25;;;;;10.56;58.11;102148.50;4373732;32;11745;-76
2020/12/01 08:05:16;;;;;;;;;16.50;16.50;;;;;8.85;60.70;102145.00;4373998;32;12042;-76
2020/12/01 08:08:17;;;;;;;;;20.75;20.00;;;;;7.42;64.24;102141.72;4365609;32;12992;-77
2020/12/01 08:11:16;;;;;;;;;44.25;36.75;;;;;6.90;66.51;102142.75;4369806;32;12343;-76
2020/12/01 08:13:45;;;;;;;;;60.25;51.00;;;;;6.38;68.64;102149.13;4359555;32;12329;-77
2020/12/01 08:16:44;;;;;;;;;58.00;48.75;;;;;5.92;69.96;102152.69;4349216;32;12580;-77
2020/12/01 08:19:40;;;;;;;;;71.67;56.67;;;;;5.82;70.74;102146.00;4348375;33;12391;-76
2020/12/01 08:22:14;;;;;;;;;66.00;53.33;;;;;5.27;71.86;102143.62;4334054;33;8947;-76
2020/12/01 08:25:19;;;;;;;;;60.33;51.33;;;;;5.19;72.22;102153.13;4374913;32;8965;-75
2020/12/01 08:28:24;;;;;;;;;66.00;56.33;;;;;5.03;72.52;102138.44;4373228;32;9618;-78
2020/12/01 08:31:22;;;;;;;;;45.25;41.75;;;;;5.26;72.94;102134.56;4373311;32;8934;-76
2020/12/01 08:34:08;;;;;;;;;47.25;43.00;;;;;5.04;73.38;102131.03;4374243;32;12380;-77
2020/12/01 08:37:10;;;;;;;;;53.00;45.33;;;;;4.97;73.90;102133.97;4357962;32;12374;-75
2020/12/01 08:40:26;;;;;;;;;65.67;55.00;;;;;4.99;74.01;102125.53;4348993;33;12433;-76
2020/12/01 08:43:23;;;;;;;;;76.00;62.67;;;;;4.68;74.34;102125.19;4367128;32;8882;-76
2020/12/01 08:46:27;;;;;;;;;87.33;70.33;;;;;4.99;74.38;102131.00;4373642;32;8941;-76
2020/12/01 08:49:23;;;;;;;;;83.67;64.33;;;;;5.36;73.68;102128.31;4362466;32;8955;-76
2020/12/01 08:52:41;;;;;;;;;52.33;45.00;;;;;5.48;73.09;102126.25;4372930;32;9551;-75
2020/12/01 08:55:20;;;;;;;;;59.00;48.00;;;;;4.87;74.66;102122.09;4372095;32;12355;-76
2020/12/01 08:58:15;;;;;;;;;53.00;47.00;;;;;5.15;74.37;102121.84;4372478;32;12384;-75
2020/12/01 09:01:14;;;;;;;;;45.00;41.75;;;;;5.17;74.01;102116.09;4362711;32;12357;-75
2020/12/01 09:04:24;;;;;;;;;64.00;52.00;;;;;5.28;73.62;102107.69;4362781;32;12415;-76
2020/12/01 09:07:25;;;;;;;;;50.50;45.50;;;;;5.22;73.94;102116.16;4372788;32;8951;-75
2020/12/01 09:10:24;;;;;;;;;57.33;46.67;;;;;5.12;73.63;102114.13;4347804;32;12366;-75
2020/12/01 09:13:26;;;;;;;;;35.00;34.50;;;;;5.27;73.31;102110.69;4360839;32;12562;-76
2020/12/01 09:17:06;;;;;;;;;51.75;44.50;;;;;5.22;73.59;102106.00;4356966;33;12437;-77
2020/12/01 09:20:05;;;;;;;;;75.00;61.00;;;;;5.22;73.87;102106.00;4358013;32;13235;-77
2020/12/01 09:23:12;;;;;;;;;68.33;57.00;;;;;5.31;73.76;102103.59;4357949;32;8929;-77
2020/12/01 09:25:54;;;;;;;;;54.67;45.67;;;;;5.25;73.91;102102.72;4359124;32;8934;-76
2020/12/01 09:28:25;;;;;;;;;60.33;49.33;;;;;5.44;73.59;102099.59;4345863;33;12363;-77
2020/12/01 09:31:23;;;;;;;;;41.00;39.00;;;;;5.34;73.71;102094.03;4357510;32;12438;-77
2020/12/01 09:34:06;;;;;;;;;14.00;14.00;;;;;5.19;74.38;102092.78;4358999;32;12501;-76
2020/12/01 09:37:03;;;;;;;;;35.25;34.75;;;;;4.96;75.56;102091.22;4357746;32;12395;-77
2020/12/01 09:39:58;;;;;;;;;34.75;34.75;;;;;5.12;75.35;102097.66;4357147;32;12378;-76
2020/12/01 09:42:59;;;;;;;;;41.25;38.75;;;;;5.11;76.00;102092.44;4357759;32;12457;-77
2020/12/01 09:45:53;;;;;;;;;51.25;45.25;;;;;5.28;75.38;102091.22;4358308;32;12357;-77
2020/12/01 09:48:49;;;;;;;;;50.67;45.00;;;;;5.23;75.63;102091.19;4348279;32;12418;-78
2020/12/01 09:51:58;;;;;;;;;47.50;40.00;;;;;5.29;75.57;102092.03;4347433;33;12487;-79
2020/12/01 09:55:28;;;;;;;;;47.00;43.00;;;;;5.29;75.33;102095.66;4359232;32;13004;-77
2020/12/01 10:13:47;;;;;;;;;53.67;46.67;;;;;5.21;75.62;102076.06;4357182;32;12386;-76
2020/12/01 10:35:24;;;;;;;;;31.50;29.25;;;;;5.61;74.79;102074.75;4344449;32;12381;-76
2020/12/01 10:38:21;;;;;;;;;30.75;28.00;;;;;5.75;74.28;102075.94;4359998;33;12510;-78
2020/12/01 10:41:17;;;;;;;;;60.00;49.25;;;;;5.86;73.82;102073.00;4359984;32;12418;-75
2020/12/01 10:44:13;;;;;;;;;61.00;52.00;;;;;5.59;74.08;102070.34;4359890;33;12422;-77
2020/12/01 10:47:26;;;;;;;;;59.75;50.25;;;;;5.56;74.47;102067.31;4352313;33;13030;-77
2020/12/01 10:49:55;;;;;;;;;51.25;45.25;;;;;5.59;74.44;102061.28;4361225;32;12505;-78
2020/12/01 10:52:52;;;;;;;;;30.25;28.50;;;;;5.84;74.38;102053.22;4356969;32;12403;-75
2020/12/01 10:55:47;;;;;;;;;29.25;28.50;;;;;5.76;74.39;102052.91;4358905;32;12425;-77
2020/12/01 10:58:44;;;;;;;;;24.00;23.75;;;;;6.01;73.81;102046.75;4352662;32;12450;-76
2020/12/01 11:01:11;;;;;;;;;16.75;16.75;;;;;5.97;73.88;102051.09;4360914;32;12304;-75
2020/12/01 11:03:53;;;;;;;;;22.25;21.50;;;;;5.72;73.37;102054.50;4370714;32;12340;-77
2020/12/01 11:06:20;;;;;;;;;16.50;16.50;;;;;5.44;73.83;102058.41;4360922;32;12361;-76
2020/12/01 11:08:47;;;;;;;;;21.50;20.50;;;;;5.63;73.83;102053.34;4352922;32;12998;-77
2020/12/01 11:11:19;;;;;;;;;20.00;19.25;;;;;5.89;72.88;102051.59;4355410;32;12405;-76
2020/12/01 11:14:15;;;;;;;;;24.25;24.00;;;;;5.60;73.73;102062.97;4366594;32;12337;-75
2020/12/01 11:17:11;;;;;;;;;44.00;42.25;;;;;5.03;74.50;102058.09;4357314;32;12339;-75
2020/12/01 11:19:43;;;;;;;;;27.50;24.25;;;;;5.10;75.03;102055.97;4375117;32;12438;-76
2020/12/01 11:22:42;;;;;;;;;51.25;42.00;;;;;5.05;75.37;102053.16;4374209;32;12341;-76
2020/12/01 11:25:09;;;;;;;;;32.75;31.75;;;;;5.10;75.15;102053.22;4374773;32;12404;-75
2020/12/01 11:27:56;;;;;;;;;42.50;39.75;;;;;5.12;75.12;102045.56;4374697;32;12343;-76
2020/12/01 11:30:54;;;;;;;;;49.00;44.00;;;;;5.12;75.10;102048.28;4372395;32;12376;-77
2020/12/01 11:33:39;;;;;;;;;64.00;50.33;;;;;5.31;74.76;102046.00;4374332;32;8894;-77
2020/12/01 11:36:07;;;;;;;;;33.50;28.25;;;;;5.40;74.35;102052.66;4369411;32;13055;-76
2020/12/01 11:38:34;;;;;;;;;70.33;58.33;;;;;5.52;74.30;102057.94;4354913;32;12364;-76
2020/12/01 11:41:30;;;;;;;;;46.00;41.50;;;;;5.54;74.36;102056.59;4351486;32;8903;-76
2020/12/01 11:44:26;;;;;;;;;40.50;37.50;;;;;5.63;73.96;102051.44;4360474;32;12416;-76
2020/12/01 11:47:22;;;;;;;;;42.75;38.25;;;;;5.65;74.04;102059.41;4362870;32;12401;-76
2020/12/01 11:50:19;;;;;;;;;37.75;36.75;;;;;5.52;74.12;102050.56;4360469;32;12542;-76
2020/12/01 11:53:16;;;;;;;;;36.75;36.50;;;;;5.56;73.90;102051.66;4358865;32;12393;-77
2020/12/01 11:55:57;;;;;;;;;23.25;23.25;;;;;5.51;73.86;102048.88;4358817;32;12380;-78
2020/12/01 11:58:24;;;;;;;;;33.75;33.75;;;;;5.52;73.66;102055.19;4366307;32;12437;-77
2020/12/01 12:01:20;;;;;;;;;29.00;29.00;;;;;5.63;73.26;102061.59;4373538;32;12463;-76
2020/12/01 12:04:16;;;;;;;;;25.50;25.50;;;;;5.30;73.86;102056.16;4363166;32;12363;-78
2020/12/01 12:07:12;;;;;;;;;32.50;31.25;;;;;5.40;73.65;102060.06;4369682;32;12354;-75
2020/12/01 12:10:07;;;;;;;;;24.25;23.25;;;;;5.35;73.87;102051.78;4370713;32;13107;-77
2020/12/01 12:12:35;;;;;;;;;29.50;28.25;;;;;5.54;72.94;102062.09;4368835;32;12328;-77
2020/12/01 12:15:30;;;;;;;;;31.25;27.25;;;;;5.35;73.00;102049.84;4363750;32;12373;-76
2020/12/01 12:18:26;;;;;;;;;31.25;27.75;;;;;5.47;73.35;102045.03;4356120;32;12457;-77
2020/12/01 12:21:21;;;;;;;;;24.75;23.50;;;;;5.62;73.13;102052.53;4373482;32;12341;-77
2020/12/01 12:24:17;;;;;;;;;31.25;31.25;;;;;5.68;72.92;102067.94;4373700;32;12358;-76
2020/12/01 12:26:44;;;;;;;;;36.25;35.00;;;;;5.30;73.69;102056.16;4364316;32;12402;-77
2020/12/01 12:29:40;;;;;;;;;28.75;28.75;;;;;5.34;73.64;102059.19;4360995;32;12472;-75
2020/12/01 12:32:08;;;;;;;;;28.75;28.75;;;;;5.13;74.09;102065.56;4365524;32;12353;-77
2020/12/01 12:34:35;;;;;;;;;22.25;20.00;;;;;5.50;73.31;102066.44;4373939;32;12412;-77
2020/12/01 12:37:30;;;;;;;;;30.50;30.50;;;;;5.45;73.36;102069.16;4359258;32;12386;-76
2020/12/01 12:40:26;;;;;;;;;27.25;27.25;;;;;5.17;74.52;102067.56;4362196;32;12407;-76
2020/12/01 12:43:23;;;;;;;;;31.00;28.50;;;;;4.97;75.10;102072.84;4361438;32;12480;-77
2020/12/01 12:45:55;;;;;;;;;48.50;41.50;;;;;5.21;74.89;102071.44;4362444;32;12374;-77
2020/12/01 12:48:50;;;;;;;;;31.25;28.75;;;;;5.48;74.43;102079.59;4358069;32;12518;-77
2020/12/01 12:51:46;;;;;;;;;30.50;26.25;;;;;5.27;73.76;102073.13;4365082;32;12529;-76
2020/12/01 12:54:21;;;;;;;;;26.50;26.50;;;;;5.17;73.54;102086.75;4346867;33;12434;-78
2020/12/01 12:57:17;;;;;;;;;22.00;21.00;;;;;5.13;73.78;102082.03;4358451;32;12420;-76
2020/12/01 13:00:12;;;;;;;;;31.25;26.75;;;;;5.22;73.29;102084.06;4365619;32;12350;-77
2020/12/01 13:02:39;;;;;;;;;28.50;28.50;;;;;5.15;73.73;102077.13;4373897;32;12406;-77
2020/12/01 13:05:35;;;;;;;;;29.50;28.25;;;;;5.29;73.48;102081.06;4347960;33;13016;-76
2020/12/01 13:08:32;;;;;;;;;32.00;27.25;;;;;5.25;73.16;102093.69;4360874;32;12424;-76
2020/12/01 13:11:27;;;;;;;;;38.00;34.75;;;;;5.12;73.70;102096.84;4371687;32;12372;-76
2020/12/01 13:14:18;;;;;;;;;28.25;26.50;;;;;5.15;73.29;102093.59;4359804;32;12501;-76
2020/12/01 13:16:47;;;;;;;;;40.25;38.50;;;;;5.16;73.32;102098.00;4334516;32;12355;-76
2020/12/01 13:19:15;;;;;;;;;29.75;29.75;;;;;4.84;74.12;102108.91;4359262;32;12393;-76
2020/12/01 13:22:11;;;;;;;;;33.25;32.75;;;;;4.75;74.08;102103.03;4360811;32;12994;-76
2020/12/01 13:25:09;;;;;;;;;32.50;30.50;;;;;5.04;73.59;102111.84;4355634;32;12398;-76
2020/12/01 13:27:50;;;;;;;;;39.75;34.50;;;;;5.00;74.27;102111.56;4373547;32;12394;-75
2020/12/01 13:30:20;;;;;;;;;37.00;35.25;;;;;4.67;74.56;102118.03;4347271;32;12430;-76
2020/12/01 13:32:53;;;;;;;;;28.25;26.75;;;;;4.97;73.56;102117.53;4355555;32;12434;-75
2020/12/01 13:35:24;;;;;;;;;30.00;30.00;;;;;4.95;73.34;102121.63;4363747;32;12365;-76
2020/12/01 13:38:19;;;;;;;;;31.75;30.75;;;;;5.06;73.09;102125.28;4362903;32;12436;-76
2020/12/01 13:40:49;;;;;;;;;37.25;30.25;;;;;5.09;73.19;102125.63;4361003;32;12415;-75
2020/12/01 13:43:50;;;;;;;;;34.50;32.75;;;;;4.80;73.75;102118.72;4371251;32;12433;-76
2020/12/01 13:46:46;;;;;;;;;40.00;37.75;;;;;4.77;73.53;102128.31;4368035;32;12348;-75